sensor_id;sensor_type;location;lat;lon;timestamp;P1;durP1;ratioP1;P2;durP2;ratioP2
52186;SDS011;38161;53.020;6.598;2023-03-17T00:00:10;7.05;;;3.72;;
52186;SDS011;38161;53.020;6.598;2023-03-17T00:02:38;8.07;;;3.72;;
52186;SDS011;38161;53.020;6.598;2023-03-17T00:05:23;5.72;;;3.53;;
52186;SDS011;38161;53.020;6.598;2023-03-17T00:07:52;8.20;;;4.13;;
52186;SDS011;38161;53.020;6.598;2023-03-17T00:10:20;7.18;;;4.63;;
52186;SDS011;38161;53.020;6.598;2023-03-17T00:12:51;7.10;;;3.58;;
52186;SDS011;38161;53.020;6.598;2023-03-17T00:15:22;7.05;;;3.63;;
52186;SDS011;38161;53.020;6.598;2023-03-17T00:17:50;7.07;;;3.58;;
52186;SDS011;38161;53.020;6.598;2023-03-17T00:20:27;7.80;;;3.50;;
52186;SDS011;38161;53.020;6.598;2023-03-17T00:22:55;7.03;;;3.70;;
52186;SDS011;38161;53.020;6.598;2023-03-17T00:25:24;7.97;;;3.83;;
52186;SDS011;38161;53.020;6.598;2023-03-17T00:27:55;7.20;;;3.22;;
52186;SDS011;38161;53.020;6.598;2023-03-17T00:30:22;6.25;;;3.58;;
52186;SDS011;38161;53.020;6.598;2023-03-17T00:32:49;7.85;;;3.60;;
52186;SDS011;38161;53.020;6.598;2023-03-17T00:35:17;8.18;;;3.70;;
52186;SDS011;38161;53.020;6.598;2023-03-17T00:37:46;10.68;;;4.20;;
52186;SDS011;38161;53.020;6.598;2023-03-17T00:40:16;7.10;;;3.83;;
52186;SDS011;38161;53.020;6.598;2023-03-17T00:42:49;5.80;;;3.60;;
52186;SDS011;38161;53.020;6.598;2023-03-17T00:45:17;6.32;;;3.70;;
52186;SDS011;38161;53.020;6.598;2023-03-17T00:47:44;9.95;;;4.05;;
52186;SDS011;38161;53.020;6.598;2023-03-17T00:50:11;5.97;;;3.50;;
52186;SDS011;38161;53.020;6.598;2023-03-17T00:52:40;6.65;;;3.65;;
52186;SDS011;38161;53.020;6.598;2023-03-17T00:55:07;7.57;;;3.53;;
52186;SDS011;38161;53.020;6.598;2023-03-17T00:57:35;6.13;;;3.13;;
52186;SDS011;38161;53.020;6.598;2023-03-17T01:00:01;5.72;;;3.38;;
52186;SDS011;38161;53.020;6.598;2023-03-17T01:02:28;6.32;;;3.50;;
52186;SDS011;38161;53.020;6.598;2023-03-17T01:04:55;6.47;;;3.60;;
52186;SDS011;38161;53.020;6.598;2023-03-17T01:09:48;6.90;;;3.85;;
52186;SDS011;38161;53.020;6.598;2023-03-17T01:12:14;5.28;;;3.47;;
52186;SDS011;38161;53.020;6.598;2023-03-17T01:14:40;7.30;;;3.80;;
52186;SDS011;38161;53.020;6.598;2023-03-17T01:17:13;6.90;;;3.80;;
52186;SDS011;38161;53.020;6.598;2023-03-17T01:19:41;6.13;;;3.72;;
52186;SDS011;38161;53.020;6.598;2023-03-17T01:22:07;6.63;;;3.60;;
52186;SDS011;38161;53.020;6.598;2023-03-17T01:24:33;10.05;;;4.20;;
52186;SDS011;38161;53.020;6.598;2023-03-17T01:27:00;9.35;;;3.60;;
52186;SDS011;38161;53.020;6.598;2023-03-17T01:29:26;6.97;;;3.90;;
52186;SDS011;38161;53.020;6.598;2023-03-17T01:31:52;5.82;;;3.45;;
52186;SDS011;38161;53.020;6.598;2023-03-17T01:34:18;6.47;;;3.45;;
52186;SDS011;38161;53.020;6.598;2023-03-17T01:36:44;7.85;;;3.55;;
52186;SDS011;38161;53.020;6.598;2023-03-17T01:39:11;6.93;;;3.45;;
52186;SDS011;38161;53.020;6.598;2023-03-17T01:41:37;8.20;;;3.33;;
52186;SDS011;38161;53.020;6.598;2023-03-17T01:44:04;8.07;;;4.35;;
52186;SDS011;38161;53.020;6.598;2023-03-17T01:46:34;6.68;;;4.00;;
52186;SDS011;38161;53.020;6.598;2023-03-17T01:49:05;6.15;;;4.10;;
52186;SDS011;38161;53.020;6.598;2023-03-17T01:51:53;6.90;;;3.67;;
52186;SDS011;38161;53.020;6.598;2023-03-17T01:54:24;7.53;;;4.07;;
52186;SDS011;38161;53.020;6.598;2023-03-17T01:56:54;6.40;;;3.70;;
52186;SDS011;38161;53.020;6.598;2023-03-17T01:59:24;6.43;;;3.60;;
52186;SDS011;38161;53.020;6.598;2023-03-17T02:01:53;8.65;;;3.90;;
52186;SDS011;38161;53.020;6.598;2023-03-17T02:04:25;7.30;;;3.70;;
52186;SDS011;38161;53.020;6.598;2023-03-17T02:06:51;6.33;;;3.83;;
52186;SDS011;38161;53.020;6.598;2023-03-17T02:09:17;6.93;;;3.33;;
52186;SDS011;38161;53.020;6.598;2023-03-17T02:11:43;6.35;;;3.60;;
52186;SDS011;38161;53.020;6.598;2023-03-17T02:14:10;8.40;;;4.10;;
52186;SDS011;38161;53.020;6.598;2023-03-17T02:16:36;7.20;;;4.00;;
52186;SDS011;38161;53.020;6.598;2023-03-17T02:19:02;9.77;;;4.00;;
52186;SDS011;38161;53.020;6.598;2023-03-17T02:21:30;8.30;;;4.25;;
52186;SDS011;38161;53.020;6.598;2023-03-17T02:24:04;6.28;;;3.40;;
52186;SDS011;38161;53.020;6.598;2023-03-17T02:26:36;6.22;;;3.35;;
52186;SDS011;38161;53.020;6.598;2023-03-17T02:29:03;6.50;;;3.72;;
52186;SDS011;38161;53.020;6.598;2023-03-17T02:31:30;5.72;;;3.33;;
52186;SDS011;38161;53.020;6.598;2023-03-17T02:33:55;6.85;;;3.72;;
52186;SDS011;38161;53.020;6.598;2023-03-17T02:36:21;6.37;;;3.90;;
52186;SDS011;38161;53.020;6.598;2023-03-17T02:38:47;6.07;;;3.70;;
52186;SDS011;38161;53.020;6.598;2023-03-17T02:41:13;6.85;;;3.83;;
52186;SDS011;38161;53.020;6.598;2023-03-17T02:43:39;9.02;;;3.80;;
52186;SDS011;38161;53.020;6.598;2023-03-17T02:46:06;6.15;;;3.90;;
52186;SDS011;38161;53.020;6.598;2023-03-17T02:48:32;8.32;;;4.60;;
52186;SDS011;38161;53.020;6.598;2023-03-17T02:51:00;5.75;;;3.28;;
52186;SDS011;38161;53.020;6.598;2023-03-17T02:53:26;5.50;;;3.58;;
52186;SDS011;38161;53.020;6.598;2023-03-17T02:55:52;8.27;;;3.77;;
52186;SDS011;38161;53.020;6.598;2023-03-17T02:58:18;8.25;;;4.07;;
52186;SDS011;38161;53.020;6.598;2023-03-17T03:00:44;7.20;;;3.93;;
52186;SDS011;38161;53.020;6.598;2023-03-17T03:03:10;6.63;;;3.95;;
52186;SDS011;38161;53.020;6.598;2023-03-17T03:05:36;7.80;;;3.92;;
52186;SDS011;38161;53.020;6.598;2023-03-17T03:08:01;6.60;;;4.13;;
52186;SDS011;38161;53.020;6.598;2023-03-17T03:10:27;7.13;;;3.78;;
52186;SDS011;38161;53.020;6.598;2023-03-17T03:12:53;6.13;;;3.47;;
52186;SDS011;38161;53.020;6.598;2023-03-17T03:15:19;6.18;;;3.75;;
52186;SDS011;38161;53.020;6.598;2023-03-17T03:17:45;9.35;;;4.07;;
52186;SDS011;38161;53.020;6.598;2023-03-17T03:20:10;7.05;;;3.92;;
52186;SDS011;38161;53.020;6.598;2023-03-17T03:22:37;6.80;;;3.97;;
52186;SDS011;38161;53.020;6.598;2023-03-17T03:25:03;6.97;;;4.13;;
52186;SDS011;38161;53.020;6.598;2023-03-17T03:29:56;7.53;;;3.95;;
52186;SDS011;38161;53.020;6.598;2023-03-17T03:32:22;6.80;;;3.63;;
52186;SDS011;38161;53.020;6.598;2023-03-17T03:34:47;6.53;;;4.00;;
52186;SDS011;38161;53.020;6.598;2023-03-17T03:37:13;7.07;;;3.70;;
52186;SDS011;38161;53.020;6.598;2023-03-17T03:39:40;7.80;;;3.47;;
52186;SDS011;38161;53.020;6.598;2023-03-17T03:42:06;8.00;;;4.20;;
52186;SDS011;38161;53.020;6.598;2023-03-17T03:44:32;7.90;;;3.90;;
52186;SDS011;38161;53.020;6.598;2023-03-17T03:46:58;9.67;;;4.00;;
52186;SDS011;38161;53.020;6.598;2023-03-17T03:49:23;5.60;;;3.30;;
52186;SDS011;38161;53.020;6.598;2023-03-17T03:51:49;9.02;;;4.30;;
52186;SDS011;38161;53.020;6.598;2023-03-17T03:54:15;5.87;;;3.80;;
52186;SDS011;38161;53.020;6.598;2023-03-17T03:56:40;6.33;;;3.67;;
52186;SDS011;38161;53.020;6.598;2023-03-17T03:59:06;7.83;;;4.00;;
52186;SDS011;38161;53.020;6.598;2023-03-17T04:01:33;8.38;;;3.67;;
52186;SDS011;38161;53.020;6.598;2023-03-17T04:03:59;7.78;;;4.15;;
52186;SDS011;38161;53.020;6.598;2023-03-17T04:06:26;9.40;;;3.75;;
52186;SDS011;38161;53.020;6.598;2023-03-17T04:08:51;6.05;;;3.60;;
52186;SDS011;38161;53.020;6.598;2023-03-17T04:11:17;6.50;;;4.03;;
52186;SDS011;38161;53.020;6.598;2023-03-17T04:13:43;7.07;;;3.60;;
52186;SDS011;38161;53.020;6.598;2023-03-17T04:16:09;6.97;;;4.07;;
52186;SDS011;38161;53.020;6.598;2023-03-17T04:18:35;7.68;;;4.07;;
52186;SDS011;38161;53.020;6.598;2023-03-17T04:21:00;6.75;;;3.40;;
52186;SDS011;38161;53.020;6.598;2023-03-17T04:23:26;7.53;;;4.33;;
52186;SDS011;38161;53.020;6.598;2023-03-17T04:25:52;9.60;;;3.78;;
52186;SDS011;38161;53.020;6.598;2023-03-17T04:28:18;8.93;;;4.07;;
52186;SDS011;38161;53.020;6.598;2023-03-17T04:30:45;6.97;;;3.60;;
52186;SDS011;38161;53.020;6.598;2023-03-17T04:33:11;6.95;;;3.10;;
52186;SDS011;38161;53.020;6.598;2023-03-17T04:35:37;6.95;;;4.00;;
52186;SDS011;38161;53.020;6.598;2023-03-17T04:38:03;6.47;;;3.80;;
52186;SDS011;38161;53.020;6.598;2023-03-17T04:40:29;7.13;;;3.87;;
52186;SDS011;38161;53.020;6.598;2023-03-17T04:42:55;6.77;;;3.80;;
52186;SDS011;38161;53.020;6.598;2023-03-17T04:45:20;6.77;;;4.03;;
52186;SDS011;38161;53.020;6.598;2023-03-17T04:47:46;8.27;;;4.33;;
52186;SDS011;38161;53.020;6.598;2023-03-17T04:50:12;6.30;;;3.60;;
52186;SDS011;38161;53.020;6.598;2023-03-17T04:52:39;7.40;;;3.97;;
52186;SDS011;38161;53.020;6.598;2023-03-17T04:55:05;6.40;;;3.47;;
52186;SDS011;38161;53.020;6.598;2023-03-17T04:57:36;9.10;;;4.45;;
52186;SDS011;38161;53.020;6.598;2023-03-17T05:00:02;6.70;;;3.90;;
52186;SDS011;38161;53.020;6.598;2023-03-17T05:02:29;6.15;;;3.47;;
52186;SDS011;38161;53.020;6.598;2023-03-17T05:04:55;6.07;;;3.57;;
52186;SDS011;38161;53.020;6.598;2023-03-17T05:07:21;7.70;;;3.90;;
52186;SDS011;38161;53.020;6.598;2023-03-17T05:09:47;9.25;;;3.60;;
52186;SDS011;38161;53.020;6.598;2023-03-17T05:12:12;10.00;;;4.17;;
52186;SDS011;38161;53.020;6.598;2023-03-17T05:14:39;6.20;;;3.75;;
52186;SDS011;38161;53.020;6.598;2023-03-17T05:17:05;8.65;;;3.50;;
52186;SDS011;38161;53.020;6.598;2023-03-17T05:19:31;8.10;;;3.63;;
52186;SDS011;38161;53.020;6.598;2023-03-17T05:21:57;7.63;;;4.18;;
52186;SDS011;38161;53.020;6.598;2023-03-17T05:24:22;9.80;;;4.13;;
52186;SDS011;38161;53.020;6.598;2023-03-17T05:26:48;7.55;;;3.72;;
52186;SDS011;38161;53.020;6.598;2023-03-17T05:29:14;9.60;;;4.10;;
52186;SDS011;38161;53.020;6.598;2023-03-17T05:31:40;7.30;;;4.23;;
52186;SDS011;38161;53.020;6.598;2023-03-17T05:34:05;9.23;;;3.57;;
52186;SDS011;38161;53.020;6.598;2023-03-17T05:36:31;6.67;;;3.77;;
52186;SDS011;38161;53.020;6.598;2023-03-17T05:38:57;6.32;;;3.88;;
52186;SDS011;38161;53.020;6.598;2023-03-17T05:41:23;7.10;;;3.63;;
52186;SDS011;38161;53.020;6.598;2023-03-17T05:43:49;7.72;;;3.60;;
52186;SDS011;38161;53.020;6.598;2023-03-17T05:46:15;7.97;;;3.90;;
52186;SDS011;38161;53.020;6.598;2023-03-17T05:48:41;9.45;;;4.03;;
52186;SDS011;38161;53.020;6.598;2023-03-17T05:51:07;7.20;;;3.57;;
52186;SDS011;38161;53.020;6.598;2023-03-17T05:53:33;8.48;;;4.05;;
52186;SDS011;38161;53.020;6.598;2023-03-17T05:56:02;7.18;;;3.53;;
52186;SDS011;38161;53.020;6.598;2023-03-17T05:58:28;6.10;;;3.50;;
52186;SDS011;38161;53.020;6.598;2023-03-17T06:00:54;8.35;;;4.05;;
52186;SDS011;38161;53.020;6.598;2023-03-17T06:03:20;7.00;;;4.20;;
52186;SDS011;38161;53.020;6.598;2023-03-17T06:05:46;9.80;;;4.30;;
52186;SDS011;38161;53.020;6.598;2023-03-17T06:08:12;8.45;;;3.80;;
52186;SDS011;38161;53.020;6.598;2023-03-17T06:10:38;7.03;;;3.95;;
52186;SDS011;38161;53.020;6.598;2023-03-17T06:13:04;6.68;;;3.90;;
52186;SDS011;38161;53.020;6.598;2023-03-17T06:15:29;8.77;;;3.93;;
52186;SDS011;38161;53.020;6.598;2023-03-17T06:17:56;9.68;;;3.97;;
52186;SDS011;38161;53.020;6.598;2023-03-17T06:20:22;8.43;;;3.63;;
52186;SDS011;38161;53.020;6.598;2023-03-17T06:22:47;8.63;;;4.03;;
52186;SDS011;38161;53.020;6.598;2023-03-17T06:25:13;6.87;;;4.20;;
52186;SDS011;38161;53.020;6.598;2023-03-17T06:27:39;8.82;;;4.07;;
52186;SDS011;38161;53.020;6.598;2023-03-17T06:30:07;7.35;;;3.72;;
52186;SDS011;38161;53.020;6.598;2023-03-17T06:32:33;7.22;;;4.15;;
52186;SDS011;38161;53.020;6.598;2023-03-17T06:35:01;7.97;;;4.05;;
52186;SDS011;38161;53.020;6.598;2023-03-17T06:37:29;6.85;;;3.72;;
52186;SDS011;38161;53.020;6.598;2023-03-17T06:39:55;9.25;;;4.22;;
52186;SDS011;38161;53.020;6.598;2023-03-17T06:42:21;8.48;;;4.10;;
52186;SDS011;38161;53.020;6.598;2023-03-17T06:44:47;7.73;;;3.80;;
52186;SDS011;38161;53.020;6.598;2023-03-17T06:47:16;7.70;;;4.60;;
52186;SDS011;38161;53.020;6.598;2023-03-17T06:49:43;9.73;;;3.90;;
52186;SDS011;38161;53.020;6.598;2023-03-17T06:52:10;10.77;;;4.63;;
52186;SDS011;38161;53.020;6.598;2023-03-17T06:54:37;7.88;;;4.10;;
52186;SDS011;38161;53.020;6.598;2023-03-17T06:57:03;10.00;;;4.67;;
52186;SDS011;38161;53.020;6.598;2023-03-17T06:59:29;7.70;;;3.97;;
52186;SDS011;38161;53.020;6.598;2023-03-17T07:01:54;9.05;;;4.28;;
52186;SDS011;38161;53.020;6.598;2023-03-17T07:04:20;10.00;;;4.68;;
52186;SDS011;38161;53.020;6.598;2023-03-17T07:06:46;8.13;;;4.10;;
52186;SDS011;38161;53.020;6.598;2023-03-17T07:09:12;8.43;;;4.00;;
52186;SDS011;38161;53.020;6.598;2023-03-17T07:11:37;7.13;;;4.07;;
52186;SDS011;38161;53.020;6.598;2023-03-17T07:14:03;9.63;;;4.13;;
52186;SDS011;38161;53.020;6.598;2023-03-17T07:16:30;7.10;;;3.80;;
52186;SDS011;38161;53.020;6.598;2023-03-17T07:18:57;6.85;;;3.97;;
52186;SDS011;38161;53.020;6.598;2023-03-17T07:21:23;7.43;;;4.05;;
52186;SDS011;38161;53.020;6.598;2023-03-17T07:23:49;7.30;;;4.07;;
52186;SDS011;38161;53.020;6.598;2023-03-17T07:26:15;7.53;;;3.90;;
52186;SDS011;38161;53.020;6.598;2023-03-17T07:28:41;9.27;;;4.13;;
52186;SDS011;38161;53.020;6.598;2023-03-17T07:31:06;7.50;;;4.10;;
52186;SDS011;38161;53.020;6.598;2023-03-17T07:33:33;8.68;;;4.25;;
52186;SDS011;38161;53.020;6.598;2023-03-17T07:35:59;7.13;;;3.90;;
52186;SDS011;38161;53.020;6.598;2023-03-17T07:38:26;7.47;;;3.83;;
52186;SDS011;38161;53.020;6.598;2023-03-17T07:40:51;7.23;;;3.70;;
52186;SDS011;38161;53.020;6.598;2023-03-17T07:43:17;9.13;;;4.23;;
52186;SDS011;38161;53.020;6.598;2023-03-17T07:45:43;9.32;;;3.85;;
52186;SDS011;38161;53.020;6.598;2023-03-17T07:48:09;8.18;;;4.35;;
52186;SDS011;38161;53.020;6.598;2023-03-17T07:50:35;9.60;;;4.65;;
52186;SDS011;38161;53.020;6.598;2023-03-17T07:53:02;6.40;;;4.22;;
52186;SDS011;38161;53.020;6.598;2023-03-17T07:55:29;8.40;;;4.22;;
52186;SDS011;38161;53.020;6.598;2023-03-17T07:57:55;7.80;;;4.20;;
52186;SDS011;38161;53.020;6.598;2023-03-17T08:00:21;5.97;;;3.58;;
52186;SDS011;38161;53.020;6.598;2023-03-17T08:02:47;7.68;;;4.18;;
52186;SDS011;38161;53.020;6.598;2023-03-17T08:05:14;8.13;;;4.15;;
52186;SDS011;38161;53.020;6.598;2023-03-17T08:07:41;7.70;;;4.45;;
52186;SDS011;38161;53.020;6.598;2023-03-17T08:10:07;6.15;;;3.90;;
52186;SDS011;38161;53.020;6.598;2023-03-17T08:12:37;9.73;;;4.20;;
52186;SDS011;38161;53.020;6.598;2023-03-17T08:15:03;7.88;;;4.15;;
52186;SDS011;38161;53.020;6.598;2023-03-17T08:17:30;9.02;;;4.10;;
52186;SDS011;38161;53.020;6.598;2023-03-17T08:19:56;12.75;;;5.05;;
52186;SDS011;38161;53.020;6.598;2023-03-17T08:22:22;13.75;;;5.28;;
52186;SDS011;38161;53.020;6.598;2023-03-17T08:24:49;7.13;;;4.18;;
52186;SDS011;38161;53.020;6.598;2023-03-17T08:27:15;8.30;;;4.78;;
52186;SDS011;38161;53.020;6.598;2023-03-17T08:29:41;10.88;;;4.53;;
52186;SDS011;38161;53.020;6.598;2023-03-17T08:32:07;7.40;;;4.60;;
52186;SDS011;38161;53.020;6.598;2023-03-17T08:34:33;8.43;;;4.40;;
52186;SDS011;38161;53.020;6.598;2023-03-17T08:36:59;8.32;;;4.22;;
52186;SDS011;38161;53.020;6.598;2023-03-17T08:41:51;11.48;;;4.40;;
52186;SDS011;38161;53.020;6.598;2023-03-17T08:44:17;8.07;;;4.43;;
52186;SDS011;38161;53.020;6.598;2023-03-17T08:46:43;6.63;;;4.10;;
52186;SDS011;38161;53.020;6.598;2023-03-17T08:49:09;9.63;;;4.07;;
52186;SDS011;38161;53.020;6.598;2023-03-17T08:51:36;9.02;;;4.63;;
52186;SDS011;38161;53.020;6.598;2023-03-17T08:54:02;10.57;;;4.35;;
52186;SDS011;38161;53.020;6.598;2023-03-17T08:56:29;7.32;;;4.32;;
52186;SDS011;38161;53.020;6.598;2023-03-17T08:58:55;7.65;;;4.20;;
52186;SDS011;38161;53.020;6.598;2023-03-17T09:01:21;10.55;;;4.95;;
52186;SDS011;38161;53.020;6.598;2023-03-17T09:03:49;8.00;;;4.32;;
52186;SDS011;38161;53.020;6.598;2023-03-17T09:06:19;9.38;;;4.30;;
52186;SDS011;38161;53.020;6.598;2023-03-17T09:08:46;8.63;;;4.80;;
52186;SDS011;38161;53.020;6.598;2023-03-17T09:11:18;7.90;;;4.38;;
52186;SDS011;38161;53.020;6.598;2023-03-17T09:13:44;7.88;;;4.47;;
52186;SDS011;38161;53.020;6.598;2023-03-17T09:16:12;8.95;;;4.38;;
52186;SDS011;38161;53.020;6.598;2023-03-17T09:18:39;7.30;;;4.40;;
52186;SDS011;38161;53.020;6.598;2023-03-17T09:21:05;7.82;;;3.78;;
52186;SDS011;38161;53.020;6.598;2023-03-17T09:23:31;7.95;;;4.22;;
52186;SDS011;38161;53.020;6.598;2023-03-17T09:25:58;7.57;;;4.63;;
52186;SDS011;38161;53.020;6.598;2023-03-17T09:28:24;9.13;;;4.70;;
52186;SDS011;38161;53.020;6.598;2023-03-17T09:30:50;9.47;;;4.83;;
52186;SDS011;38161;53.020;6.598;2023-03-17T09:33:17;12.40;;;4.82;;
52186;SDS011;38161;53.020;6.598;2023-03-17T09:35:42;8.48;;;4.22;;
52186;SDS011;38161;53.020;6.598;2023-03-17T09:38:08;9.35;;;4.63;;
52186;SDS011;38161;53.020;6.598;2023-03-17T09:45:46;8.40;;;4.47;;
52186;SDS011;38161;53.020;6.598;2023-03-17T09:55:58;7.90;;;4.50;;
52186;SDS011;38161;53.020;6.598;2023-03-17T09:58:50;8.88;;;4.63;;
52186;SDS011;38161;53.020;6.598;2023-03-17T10:01:19;6.75;;;4.20;;
52186;SDS011;38161;53.020;6.598;2023-03-17T10:03:46;10.25;;;4.32;;
52186;SDS011;38161;53.020;6.598;2023-03-17T10:09:04;8.20;;;4.07;;
52186;SDS011;38161;53.020;6.598;2023-03-17T10:11:45;7.80;;;4.63;;
52186;SDS011;38161;53.020;6.598;2023-03-17T10:17:03;8.35;;;4.57;;
52186;SDS011;38161;53.020;6.598;2023-03-17T10:22:29;14.95;;;4.70;;
52186;SDS011;38161;53.020;6.598;2023-03-17T10:25:17;8.20;;;4.78;;
52186;SDS011;38161;53.020;6.598;2023-03-17T10:27:53;8.80;;;4.35;;
52186;SDS011;38161;53.020;6.598;2023-03-17T10:30:23;8.40;;;4.63;;
52186;SDS011;38161;53.020;6.598;2023-03-17T10:35:17;9.63;;;4.88;;
52186;SDS011;38161;53.020;6.598;2023-03-17T10:37:45;7.65;;;4.78;;
52186;SDS011;38161;53.020;6.598;2023-03-17T10:40:22;8.07;;;4.63;;
52186;SDS011;38161;53.020;6.598;2023-03-17T10:42:51;9.20;;;4.80;;
52186;SDS011;38161;53.020;6.598;2023-03-17T10:47:53;13.25;;;5.13;;
52186;SDS011;38161;53.020;6.598;2023-03-17T10:50:25;8.00;;;4.60;;
52186;SDS011;38161;53.020;6.598;2023-03-17T10:53:00;9.18;;;5.30;;
52186;SDS011;38161;53.020;6.598;2023-03-17T10:55:32;9.50;;;4.57;;
52186;SDS011;38161;53.020;6.598;2023-03-17T10:58:15;12.52;;;4.70;;
52186;SDS011;38161;53.020;6.598;2023-03-17T11:03:21;8.20;;;5.03;;
52186;SDS011;38161;53.020;6.598;2023-03-17T11:08:39;10.65;;;4.90;;
52186;SDS011;38161;53.020;6.598;2023-03-17T11:11:18;8.93;;;4.95;;
52186;SDS011;38161;53.020;6.598;2023-03-17T11:13:47;7.72;;;4.65;;
52186;SDS011;38161;53.020;6.598;2023-03-17T11:18:46;8.65;;;4.68;;
52186;SDS011;38161;53.020;6.598;2023-03-17T11:21:14;8.88;;;4.90;;
52186;SDS011;38161;53.020;6.598;2023-03-17T11:29:02;7.28;;;5.05;;
52186;SDS011;38161;53.020;6.598;2023-03-17T11:37:55;9.55;;;5.53;;
52186;SDS011;38161;53.020;6.598;2023-03-17T11:40:33;8.60;;;5.07;;
52186;SDS011;38161;53.020;6.598;2023-03-17T11:46:02;8.27;;;5.38;;
52186;SDS011;38161;53.020;6.598;2023-03-17T11:48:43;8.45;;;4.88;;
52186;SDS011;38161;53.020;6.598;2023-03-17T11:51:34;9.25;;;5.13;;
52186;SDS011;38161;53.020;6.598;2023-03-17T11:57:19;9.13;;;5.13;;
52186;SDS011;38161;53.020;6.598;2023-03-17T11:59:57;9.38;;;5.93;;
52186;SDS011;38161;53.020;6.598;2023-03-17T12:02:36;11.40;;;5.35;;
52186;SDS011;38161;53.020;6.598;2023-03-17T12:05:07;11.35;;;5.22;;
52186;SDS011;38161;53.020;6.598;2023-03-17T12:07:50;8.90;;;5.18;;
52186;SDS011;38161;53.020;6.598;2023-03-17T12:10:22;9.30;;;5.22;;
52186;SDS011;38161;53.020;6.598;2023-03-17T12:15:40;9.98;;;5.78;;
52186;SDS011;38161;53.020;6.598;2023-03-17T12:20:57;9.23;;;5.50;;
52186;SDS011;38161;53.020;6.598;2023-03-17T12:29:10;10.65;;;5.68;;
52186;SDS011;38161;53.020;6.598;2023-03-17T12:31:41;9.88;;;5.88;;
52186;SDS011;38161;53.020;6.598;2023-03-17T12:37:15;9.35;;;5.40;;
52186;SDS011;38161;53.020;6.598;2023-03-17T12:39:43;8.85;;;5.75;;
52186;SDS011;38161;53.020;6.598;2023-03-17T12:42:51;8.55;;;5.43;;
52186;SDS011;38161;53.020;6.598;2023-03-17T12:53:31;9.20;;;5.97;;
52186;SDS011;38161;53.020;6.598;2023-03-17T12:56:05;12.07;;;5.90;;
52186;SDS011;38161;53.020;6.598;2023-03-17T12:58:34;8.40;;;5.30;;
52186;SDS011;38161;53.020;6.598;2023-03-17T13:01:10;8.35;;;5.70;;
52186;SDS011;38161;53.020;6.598;2023-03-17T13:06:24;10.20;;;5.82;;
52186;SDS011;38161;53.020;6.598;2023-03-17T13:08:51;9.52;;;5.68;;
52186;SDS011;38161;53.020;6.598;2023-03-17T13:11:18;9.27;;;5.68;;
52186;SDS011;38161;53.020;6.598;2023-03-17T13:19:14;11.65;;;5.80;;
52186;SDS011;38161;53.020;6.598;2023-03-17T13:21:51;8.65;;;5.63;;
52186;SDS011;38161;53.020;6.598;2023-03-17T13:24:21;8.07;;;5.50;;
52186;SDS011;38161;53.020;6.598;2023-03-17T13:27:00;11.05;;;5.97;;
52186;SDS011;38161;53.020;6.598;2023-03-17T13:37:28;16.67;;;6.13;;
52186;SDS011;38161;53.020;6.598;2023-03-17T13:45:40;8.83;;;5.27;;
52186;SDS011;38161;53.020;6.598;2023-03-17T13:53:40;14.07;;;5.90;;
52186;SDS011;38161;53.020;6.598;2023-03-17T13:56:14;12.02;;;6.03;;
52186;SDS011;38161;53.020;6.598;2023-03-17T14:01:31;9.93;;;6.22;;
52186;SDS011;38161;53.020;6.598;2023-03-17T14:04:16;15.98;;;6.38;;
52186;SDS011;38161;53.020;6.598;2023-03-17T14:06:44;7.78;;;5.80;;
52186;SDS011;38161;53.020;6.598;2023-03-17T14:09:22;13.73;;;6.18;;
52186;SDS011;38161;53.020;6.598;2023-03-17T14:11:51;8.60;;;5.95;;
52186;SDS011;38161;53.020;6.598;2023-03-17T14:14:39;9.77;;;6.50;;
52186;SDS011;38161;53.020;6.598;2023-03-17T14:17:21;12.85;;;6.35;;
52186;SDS011;38161;53.020;6.598;2023-03-17T14:19:59;13.25;;;6.65;;
52186;SDS011;38161;53.020;6.598;2023-03-17T14:22:47;9.27;;;6.18;;
52186;SDS011;38161;53.020;6.598;2023-03-17T14:25:19;8.75;;;6.05;;
52186;SDS011;38161;53.020;6.598;2023-03-17T14:27:50;11.13;;;6.60;;
52186;SDS011;38161;53.020;6.598;2023-03-17T14:30:22;11.15;;;6.22;;
52186;SDS011;38161;53.020;6.598;2023-03-17T14:33:04;11.38;;;6.35;;
52186;SDS011;38161;53.020;6.598;2023-03-17T14:35:45;7.65;;;5.45;;
52186;SDS011;38161;53.020;6.598;2023-03-17T14:38:28;8.68;;;6.22;;
52186;SDS011;38161;53.020;6.598;2023-03-17T14:41:34;10.63;;;6.63;;
52186;SDS011;38161;53.020;6.598;2023-03-17T14:43:56;12.00;;;6.53;;
52186;SDS011;38161;53.020;6.598;2023-03-17T14:46:33;10.20;;;6.10;;
52186;SDS011;38161;53.020;6.598;2023-03-17T14:49:15;11.38;;;6.28;;
52186;SDS011;38161;53.020;6.598;2023-03-17T14:51:47;10.57;;;6.32;;
52186;SDS011;38161;53.020;6.598;2023-03-17T14:54:20;12.10;;;5.97;;
52186;SDS011;38161;53.020;6.598;2023-03-17T14:56:52;15.13;;;6.93;;
52186;SDS011;38161;53.020;6.598;2023-03-17T14:59:37;11.85;;;6.28;;
52186;SDS011;38161;53.020;6.598;2023-03-17T15:02:21;11.35;;;6.15;;
52186;SDS011;38161;53.020;6.598;2023-03-17T15:04:52;13.32;;;5.95;;
52186;SDS011;38161;53.020;6.598;2023-03-17T15:07:31;10.05;;;6.88;;
52186;SDS011;38161;53.020;6.598;2023-03-17T15:10:05;12.10;;;6.35;;
52186;SDS011;38161;53.020;6.598;2023-03-17T15:12:38;10.02;;;6.20;;
52186;SDS011;38161;53.020;6.598;2023-03-17T15:15:11;11.93;;;7.00;;
52186;SDS011;38161;53.020;6.598;2023-03-17T15:17:59;9.02;;;6.28;;
52186;SDS011;38161;53.020;6.598;2023-03-17T15:20:28;11.00;;;6.32;;
52186;SDS011;38161;53.020;6.598;2023-03-17T15:23:02;12.50;;;6.78;;
52186;SDS011;38161;53.020;6.598;2023-03-17T15:25:43;11.70;;;6.35;;
52186;SDS011;38161;53.020;6.598;2023-03-17T15:28:12;11.82;;;5.72;;
52186;SDS011;38161;53.020;6.598;2023-03-17T15:30:43;9.07;;;5.93;;
52186;SDS011;38161;53.020;6.598;2023-03-17T15:33:18;10.52;;;6.25;;
52186;SDS011;38161;53.020;6.598;2023-03-17T15:35:45;13.98;;;6.70;;
52186;SDS011;38161;53.020;6.598;2023-03-17T15:38:11;8.85;;;6.03;;
52186;SDS011;38161;53.020;6.598;2023-03-17T15:40:37;16.58;;;6.25;;
52186;SDS011;38161;53.020;6.598;2023-03-17T15:43:03;9.80;;;6.43;;
52186;SDS011;38161;53.020;6.598;2023-03-17T15:45:28;11.85;;;6.05;;
52186;SDS011;38161;53.020;6.598;2023-03-17T15:47:54;9.52;;;6.10;;
52186;SDS011;38161;53.020;6.598;2023-03-17T15:50:25;10.07;;;6.70;;
52186;SDS011;38161;53.020;6.598;2023-03-17T15:52:53;9.52;;;6.60;;
52186;SDS011;38161;53.020;6.598;2023-03-17T15:55:29;12.90;;;6.72;;
52186;SDS011;38161;53.020;6.598;2023-03-17T15:57:55;13.05;;;7.43;;
52186;SDS011;38161;53.020;6.598;2023-03-17T16:00:23;14.25;;;7.68;;
52186;SDS011;38161;53.020;6.598;2023-03-17T16:02:51;19.50;;;7.40;;
52186;SDS011;38161;53.020;6.598;2023-03-17T16:05:19;10.30;;;6.93;;
52186;SDS011;38161;53.020;6.598;2023-03-17T16:07:48;11.75;;;6.57;;
52186;SDS011;38161;53.020;6.598;2023-03-17T16:10:21;13.10;;;6.97;;
52186;SDS011;38161;53.020;6.598;2023-03-17T16:12:49;12.30;;;6.63;;
52186;SDS011;38161;53.020;6.598;2023-03-17T16:15:22;9.90;;;6.32;;
52186;SDS011;38161;53.020;6.598;2023-03-17T16:17:51;10.73;;;6.85;;
52186;SDS011;38161;53.020;6.598;2023-03-17T16:20:35;11.25;;;6.35;;
52186;SDS011;38161;53.020;6.598;2023-03-17T16:23:05;11.23;;;6.72;;
52186;SDS011;38161;53.020;6.598;2023-03-17T16:25:35;16.10;;;7.32;;
52186;SDS011;38161;53.020;6.598;2023-03-17T16:28:04;13.75;;;7.13;;
52186;SDS011;38161;53.020;6.598;2023-03-17T16:30:38;10.93;;;7.20;;
52186;SDS011;38161;53.020;6.598;2023-03-17T16:33:23;10.98;;;6.63;;
52186;SDS011;38161;53.020;6.598;2023-03-17T16:35:51;12.23;;;6.97;;
52186;SDS011;38161;53.020;6.598;2023-03-17T16:38:21;13.13;;;6.47;;
52186;SDS011;38161;53.020;6.598;2023-03-17T16:40:49;9.75;;;6.20;;
52186;SDS011;38161;53.020;6.598;2023-03-17T16:43:47;11.57;;;5.75;;
52186;SDS011;38161;53.020;6.598;2023-03-17T16:46:27;10.77;;;6.63;;
52186;SDS011;38161;53.020;6.598;2023-03-17T16:48:56;10.68;;;6.63;;